createdAt,value
2022-09-30T00:01:20.354Z,9.29
2022-09-30T00:03:50.380Z,9.06
2022-09-30T00:06:17.279Z,8.94
2022-09-30T00:08:43.935Z,8.90
2022-09-30T00:11:18.687Z,8.98
2022-09-30T00:13:47.919Z,8.97
2022-09-30T00:16:15.750Z,8.93
2022-09-30T00:18:43.637Z,8.92
2022-09-30T00:21:12.303Z,9.02
2022-09-30T00:23:40.151Z,9.04
2022-09-30T00:26:12.186Z,8.84
2022-09-30T00:28:40.305Z,8.91
2022-09-30T00:31:11.126Z,8.81
2022-09-30T00:33:37.987Z,8.76
2022-09-30T00:36:05.077Z,8.46
2022-09-30T00:38:31.737Z,8.83
2022-09-30T00:40:59.715Z,8.54
2022-09-30T00:43:53.695Z,8.86
2022-09-30T00:46:29.819Z,8.85
2022-09-30T00:48:58.316Z,8.79
2022-09-30T00:51:32.875Z,8.89
2022-09-30T00:54:08.873Z,8.72
2022-09-30T00:56:41.092Z,8.73
2022-09-30T00:59:16.378Z,8.66
2022-09-30T01:01:43.817Z,8.55
2022-09-30T01:04:16.488Z,8.47
2022-09-30T01:06:43.961Z,8.46
2022-09-30T01:09:11.408Z,8.37
2022-09-30T01:11:38.187Z,8.15
2022-09-30T01:14:15.852Z,8.25
2022-09-30T01:16:50.988Z,8.38
2022-09-30T01:19:40.273Z,8.31
2022-09-30T01:22:28.150Z,8.27
2022-09-30T01:25:24.300Z,8.27
2022-09-30T01:28:25.376Z,7.95
2022-09-30T01:31:29.567Z,8.34
2022-09-30T01:34:02.246Z,8.33
2022-09-30T01:36:47.561Z,8.15
2022-09-30T01:39:59.092Z,7.91
2022-09-30T01:42:31.787Z,7.73
2022-09-30T01:45:03.805Z,7.53
2022-09-30T01:47:48.484Z,7.72
2022-09-30T01:50:44.418Z,7.79
2022-09-30T01:53:15.862Z,7.87
2022-09-30T01:55:53.378Z,7.82
2022-09-30T01:58:32.991Z,7.72
2022-09-30T02:01:06.153Z,7.62
2022-09-30T02:03:37.486Z,7.53
2022-09-30T02:06:08.604Z,7.22
2022-09-30T02:08:47.357Z,7.64
2022-09-30T02:11:20.181Z,7.64
2022-09-30T02:13:52.974Z,7.60
2022-09-30T02:16:39.846Z,7.67
2022-09-30T02:19:18.133Z,7.58
2022-09-30T02:21:55.366Z,7.60
2022-09-30T02:24:25.274Z,7.54
2022-09-30T02:26:56.778Z,7.51
2022-09-30T02:29:29.560Z,7.33
2022-09-30T02:32:01.144Z,7.62
2022-09-30T02:34:39.359Z,7.62
2022-09-30T02:37:15.639Z,7.60
2022-09-30T02:39:59.407Z,7.44
2022-09-30T02:42:28.559Z,7.30
2022-09-30T02:45:02.331Z,7.29
2022-09-30T02:47:44.350Z,7.25
2022-09-30T02:50:20.329Z,6.98
2022-09-30T02:52:52.935Z,7.07
2022-09-30T02:55:30.387Z,6.99
2022-09-30T02:58:26.462Z,7.22
2022-09-30T03:00:54.631Z,7.47
2022-09-30T03:03:39.756Z,7.49
2022-09-30T03:06:07.070Z,7.37
2022-09-30T03:08:33.682Z,6.70
2022-09-30T03:11:00.438Z,7.35
2022-09-30T03:13:32.805Z,7.44
2022-09-30T03:16:05.474Z,7.51
2022-09-30T03:18:43.520Z,7.44
2022-09-30T03:21:55.175Z,7.39
2022-09-30T03:24:24.770Z,7.39
2022-09-30T03:27:09.583Z,7.41
2022-09-30T03:29:49.664Z,7.15
2022-09-30T03:32:46.087Z,6.83
2022-09-30T03:35:12.600Z,7.23
2022-09-30T03:38:16.743Z,7.27
2022-09-30T03:41:15.563Z,7.31
2022-09-30T03:43:51.293Z,6.98
2022-09-30T03:46:23.465Z,6.89
2022-09-30T03:48:54.567Z,6.70
2022-09-30T03:51:24.800Z,6.76
2022-09-30T03:53:53.232Z,6.54
2022-09-30T03:56:30.217Z,6.89
2022-09-30T03:58:57.162Z,6.87
2022-09-30T04:01:24.864Z,6.78
2022-09-30T04:03:52.887Z,6.94
2022-09-30T04:06:22.609Z,6.84
2022-09-30T04:08:50.315Z,6.75
2022-09-30T04:11:17.823Z,6.77
2022-09-30T04:13:44.469Z,6.79
2022-09-30T04:16:11.240Z,6.81
2022-09-30T04:18:39.124Z,6.60
2022-09-30T04:21:11.591Z,6.86
2022-09-30T04:23:40.054Z,6.88
2022-09-30T04:26:10.708Z,6.87
2022-09-30T04:28:37.340Z,6.68
2022-09-30T04:31:05.726Z,6.64
2022-09-30T04:33:32.929Z,6.46
2022-09-30T04:36:00.391Z,7.12
2022-09-30T04:38:27.533Z,7.26
2022-09-30T04:40:54.684Z,7.10
2022-09-30T04:43:23.459Z,7.06
2022-09-30T04:45:55.435Z,7.08
2022-09-30T04:48:24.684Z,7.17
2022-09-30T04:50:51.429Z,7.13
2022-09-30T04:53:18.620Z,7.19
2022-09-30T04:55:45.932Z,7.22
2022-09-30T04:58:13.297Z,7.16
2022-09-30T05:00:39.949Z,7.24
2022-09-30T05:03:06.614Z,7.42
2022-09-30T05:05:33.613Z,7.50
2022-09-30T05:08:04.339Z,7.55
2022-09-30T05:10:31.262Z,7.60
2022-09-30T05:12:58.201Z,7.70
2022-09-30T05:15:25.578Z,7.67
2022-09-30T05:17:53.342Z,7.62
2022-09-30T05:20:21.451Z,7.51
2022-09-30T05:22:53.372Z,7.37
2022-09-30T05:25:20.044Z,7.18
2022-09-30T05:27:49.692Z,7.03
2022-09-30T05:30:16.899Z,7.10
2022-09-30T05:32:43.530Z,7.13
2022-09-30T05:35:12.001Z,7.09
2022-09-30T05:37:38.909Z,7.05
2022-09-30T05:40:07.397Z,7.06
2022-09-30T05:42:36.900Z,7.04
2022-09-30T05:45:06.894Z,6.37
2022-09-30T05:47:34.165Z,6.77
2022-09-30T05:50:00.799Z,6.85
2022-09-30T05:52:28.277Z,6.83
2022-09-30T05:54:56.310Z,7.04
2022-09-30T05:57:23.036Z,7.08
2022-09-30T05:59:49.647Z,7.08
2022-09-30T06:02:16.619Z,7.02
2022-09-30T06:04:43.288Z,7.13
2022-09-30T06:07:10.716Z,7.24
2022-09-30T06:09:37.579Z,7.20
2022-09-30T06:12:06.193Z,7.25
2022-09-30T06:14:32.896Z,7.37
2022-09-30T06:17:02.768Z,7.49
2022-09-30T06:19:30.316Z,7.44
2022-09-30T06:21:58.196Z,7.67
2022-09-30T06:24:25.041Z,7.76
2022-09-30T06:26:51.731Z,7.80
2022-09-30T06:29:19.507Z,7.83
2022-09-30T06:31:46.205Z,7.84
2022-09-30T06:34:12.869Z,7.87
2022-09-30T06:36:39.649Z,8.08
2022-09-30T06:39:09.116Z,8.32
2022-09-30T06:41:42.380Z,8.51
2022-09-30T06:44:09.584Z,8.68
2022-09-30T06:46:44.360Z,8.77
2022-09-30T06:49:14.756Z,8.79
2022-09-30T06:51:42.026Z,8.89
2022-09-30T06:54:09.225Z,8.87
2022-09-30T06:56:36.939Z,9.15
2022-09-30T06:59:04.554Z,9.41
2022-09-30T07:01:31.178Z,9.68
2022-09-30T07:04:03.234Z,10.16
2022-09-30T07:06:31.079Z,10.58
2022-09-30T07:08:57.765Z,10.57
2022-09-30T07:11:24.791Z,10.70
2022-09-30T07:13:51.681Z,11.43
2022-09-30T07:16:19.947Z,11.76
2022-09-30T07:18:47.311Z,11.62
2022-09-30T07:21:16.142Z,12.00
2022-09-30T07:23:47.985Z,12.14
2022-09-30T07:26:20.692Z,12.26
2022-09-30T07:28:47.773Z,12.38
2022-09-30T07:31:32.417Z,12.77
2022-09-30T07:34:00.098Z,12.90
2022-09-30T07:36:32.603Z,13.28
2022-09-30T07:39:06.141Z,13.03
2022-09-30T07:41:36.317Z,13.42
2022-09-30T07:44:06.090Z,13.33
2022-09-30T07:46:34.930Z,13.19
2022-09-30T07:49:05.495Z,13.36
2022-09-30T07:51:38.216Z,13.72
2022-09-30T07:54:09.131Z,13.60
2022-09-30T07:56:58.156Z,13.66
2022-09-30T07:59:27.224Z,13.74
2022-09-30T08:01:54.287Z,13.50
2022-09-30T08:04:21.385Z,13.37
2022-09-30T08:06:51.212Z,12.98
2022-09-30T08:09:19.984Z,13.01
2022-09-30T08:11:47.476Z,13.22
2022-09-30T08:14:26.090Z,13.11
2022-09-30T08:16:53.414Z,13.19
2022-09-30T08:19:22.215Z,13.46
2022-09-30T08:21:49.689Z,13.69
2022-09-30T08:24:16.911Z,13.83
2022-09-30T08:26:43.935Z,14.02
2022-09-30T08:29:19.940Z,14.12
2022-09-30T08:31:47.948Z,14.26
2022-09-30T08:34:15.053Z,14.02
2022-09-30T08:36:42.249Z,13.68
2022-09-30T08:39:10.822Z,13.34
2022-09-30T08:41:37.413Z,13.19
2022-09-30T08:44:24.467Z,13.12
2022-09-30T08:47:03.754Z,12.99
2022-09-30T08:49:53.121Z,12.88
2022-09-30T08:52:30.939Z,12.92
2022-09-30T08:55:21.129Z,13.02
2022-09-30T08:57:48.069Z,13.24
2022-09-30T09:00:17.912Z,13.46
2022-09-30T09:02:50.561Z,13.79
2022-09-30T09:05:31.129Z,13.98
2022-09-30T09:08:02.537Z,13.81
2022-09-30T09:10:38.133Z,13.56
2022-09-30T09:13:19.869Z,13.52
2022-09-30T09:16:23.007Z,13.47
2022-09-30T09:19:18.809Z,13.41
2022-09-30T09:22:01.700Z,13.59
2022-09-30T09:24:44.129Z,13.82
2022-09-30T09:27:19.655Z,14.13
2022-09-30T09:30:12.302Z,14.15
2022-09-30T09:32:39.072Z,13.73
2022-09-30T09:35:24.551Z,14.08
2022-09-30T09:38:26.638Z,13.81
2022-09-30T09:41:04.285Z,14.47
2022-09-30T09:43:49.722Z,15.17
2022-09-30T09:46:44.534Z,15.64
2022-09-30T09:49:13.929Z,16.01
2022-09-30T09:51:47.159Z,16.17
2022-09-30T09:54:19.066Z,16.26
2022-09-30T09:56:45.656Z,17.14
2022-09-30T09:59:13.627Z,16.99
2022-09-30T10:01:50.176Z,17.25
2022-09-30T10:04:21.968Z,17.60
2022-09-30T10:07:12.382Z,18.68
2022-09-30T10:09:41.403Z,19.48
2022-09-30T10:12:08.046Z,20.06
2022-09-30T10:14:36.777Z,20.32
2022-09-30T10:17:05.809Z,20.47
2022-09-30T10:19:34.629Z,20.50
2022-09-30T10:22:11.761Z,20.42
2022-09-30T10:24:39.613Z,20.06
2022-09-30T10:27:28.533Z,19.57
2022-09-30T10:29:55.533Z,18.74
2022-09-30T10:32:23.609Z,19.03
2022-09-30T10:35:20.733Z,18.97
2022-09-30T10:37:52.508Z,18.72
2022-09-30T10:40:22.586Z,19.00
2022-09-30T10:42:49.319Z,19.09
2022-09-30T10:45:36.554Z,18.97
2022-09-30T10:48:08.218Z,18.95
2022-09-30T10:50:35.022Z,18.78
2022-09-30T10:53:04.994Z,18.87
2022-09-30T10:55:33.472Z,18.69
2022-09-30T10:58:39.305Z,18.92
2022-09-30T11:01:19.521Z,19.04
2022-09-30T11:04:17.505Z,19.65
2022-09-30T11:06:47.247Z,19.83
2022-09-30T11:09:37.779Z,20.72
2022-09-30T11:12:19.964Z,20.87
2022-09-30T11:14:57.765Z,21.22
2022-09-30T11:17:40.092Z,21.01
2022-09-30T11:20:17.234Z,20.46
2022-09-30T11:22:59.052Z,20.61
2022-09-30T11:25:53.312Z,20.81
2022-09-30T11:28:27.719Z,20.46
2022-09-30T11:31:18.772Z,20.49
2022-09-30T11:33:58.077Z,20.21
2022-09-30T11:36:42.897Z,19.10
2022-09-30T11:39:47.083Z,19.93
2022-09-30T11:42:20.294Z,20.80
2022-09-30T11:44:51.431Z,20.60
2022-09-30T11:47:36.649Z,20.50
2022-09-30T11:50:30.805Z,20.56
2022-09-30T11:53:19.826Z,20.70
2022-09-30T11:56:08.774Z,20.68
2022-09-30T11:58:43.679Z,20.43
2022-09-30T12:01:22.198Z,19.53
2022-09-30T12:03:59.403Z,19.65
2022-09-30T12:06:31.950Z,19.95
2022-09-30T12:09:12.562Z,20.28
2022-09-30T12:11:53.634Z,21.11
2022-09-30T12:14:39.263Z,21.63
2022-09-30T12:17:12.638Z,22.18
2022-09-30T12:19:47.965Z,23.00
2022-09-30T12:22:31.491Z,23.26
2022-09-30T12:24:58.146Z,23.00
2022-09-30T12:27:33.884Z,22.42
2022-09-30T12:30:18.162Z,23.77
2022-09-30T12:33:10.908Z,25.09
2022-09-30T12:36:20.528Z,25.11
2022-09-30T12:38:54.817Z,24.80
2022-09-30T12:42:00.522Z,24.52
2022-09-30T12:44:57.159Z,24.84
2022-09-30T12:47:54.897Z,22.20
2022-09-30T12:50:28.033Z,19.93
2022-09-30T12:52:57.393Z,19.33
2022-09-30T12:55:42.243Z,19.24
2022-09-30T12:58:29.795Z,19.36
2022-09-30T13:01:26.541Z,19.10
2022-09-30T13:04:02.109Z,18.63
2022-09-30T13:06:46.964Z,18.72
2022-09-30T13:09:16.598Z,18.41
2022-09-30T13:11:48.343Z,18.60
2022-09-30T13:14:14.959Z,18.98
2022-09-30T13:17:03.111Z,19.48
2022-09-30T13:19:36.224Z,19.24
2022-09-30T13:22:18.242Z,19.02
2022-09-30T13:24:57.628Z,18.67
2022-09-30T13:27:34.700Z,18.69
2022-09-30T13:30:21.299Z,18.79
2022-09-30T13:33:06.458Z,18.43
2022-09-30T13:35:51.415Z,18.41
2022-09-30T13:38:21.706Z,18.18
2022-09-30T13:41:03.857Z,18.29
2022-09-30T13:44:03.437Z,18.74
2022-09-30T13:46:42.945Z,18.92
2022-09-30T13:49:21.483Z,19.26
2022-09-30T13:51:48.882Z,19.06
2022-09-30T13:54:34.017Z,19.10
2022-09-30T13:57:04.483Z,18.93
2022-09-30T13:59:40.268Z,19.34
2022-09-30T14:02:12.681Z,19.86
2022-09-30T14:05:07.370Z,20.34
2022-09-30T14:07:55.789Z,20.23
2022-09-30T14:10:28.973Z,20.44
2022-09-30T14:13:20.739Z,19.80
2022-09-30T14:16:01.696Z,19.01
2022-09-30T14:18:46.583Z,18.56
2022-09-30T14:21:22.481Z,18.13
2022-09-30T14:24:04.205Z,17.97
2022-09-30T14:26:43.950Z,18.06
2022-09-30T14:29:23.037Z,17.91
2022-09-30T14:31:49.737Z,17.37
2022-09-30T14:34:20.835Z,17.31
2022-09-30T14:36:50.546Z,17.20
2022-09-30T14:39:25.525Z,17.13
2022-09-30T14:41:59.290Z,17.29
2022-09-30T14:44:28.301Z,17.29
2022-09-30T14:47:01.223Z,17.32
2022-09-30T14:49:34.453Z,17.78
2022-09-30T14:52:05.348Z,17.90
2022-09-30T14:54:33.775Z,17.71
2022-09-30T14:57:02.851Z,17.49
2022-09-30T14:59:31.912Z,17.45
2022-09-30T15:02:15.878Z,17.25
2022-09-30T15:04:48.981Z,17.65
2022-09-30T15:07:15.942Z,17.79
2022-09-30T15:09:47.217Z,17.57
2022-09-30T15:12:16.508Z,17.66
2022-09-30T15:15:00.141Z,17.65
2022-09-30T15:17:36.870Z,17.51
2022-09-30T15:20:26.109Z,17.35
2022-09-30T15:22:54.004Z,17.11
2022-09-30T15:25:21.862Z,17.44
2022-09-30T15:27:50.086Z,17.48
2022-09-30T15:30:18.111Z,17.64
2022-09-30T15:32:46.077Z,17.12
2022-09-30T15:35:17.027Z,17.06
2022-09-30T15:37:43.898Z,16.82
2022-09-30T15:40:35.061Z,16.69
2022-09-30T15:43:06.874Z,16.34
2022-09-30T15:45:36.598Z,15.86
2022-09-30T15:48:16.724Z,16.27
2022-09-30T15:50:47.948Z,16.33
2022-09-30T15:53:25.822Z,16.03
2022-09-30T15:56:00.135Z,16.72
2022-09-30T15:58:26.828Z,16.73
2022-09-30T16:01:15.277Z,16.85
2022-09-30T16:03:50.994Z,17.02
2022-09-30T16:06:25.973Z,16.91
2022-09-30T16:09:01.186Z,17.17
2022-09-30T16:11:31.652Z,17.42
2022-09-30T16:13:59.953Z,17.13
2022-09-30T16:16:30.404Z,17.11
2022-09-30T16:18:58.881Z,16.76
2022-09-30T16:21:50.983Z,16.81
2022-09-30T16:24:30.170Z,16.62
2022-09-30T16:26:59.510Z,16.44
2022-09-30T16:29:26.995Z,16.31
2022-09-30T16:31:56.345Z,16.17
2022-09-30T16:34:31.315Z,15.93
2022-09-30T16:37:10.921Z,15.85
2022-09-30T16:39:37.701Z,15.33
2022-09-30T16:42:04.484Z,15.46
2022-09-30T16:44:34.251Z,15.48
2022-09-30T16:47:03.917Z,15.30
2022-09-30T16:49:30.575Z,15.26
2022-09-30T16:51:57.309Z,15.01
2022-09-30T16:54:24.011Z,14.79
2022-09-30T16:56:50.698Z,14.48
2022-09-30T16:59:18.143Z,14.77
2022-09-30T17:01:45.137Z,14.54
2022-09-30T17:04:15.216Z,14.64
2022-09-30T17:06:44.058Z,14.46
2022-09-30T17:09:10.741Z,14.49
2022-09-30T17:11:38.146Z,14.58
2022-09-30T17:14:05.362Z,14.48
2022-09-30T17:16:33.064Z,14.32
2022-09-30T17:18:59.971Z,14.18
2022-09-30T17:21:27.227Z,14.14
2022-09-30T17:23:54.860Z,14.09
2022-09-30T17:26:21.563Z,13.84
2022-09-30T17:28:48.289Z,13.85
2022-09-30T17:31:15.144Z,13.54
2022-09-30T17:33:42.261Z,13.29
2022-09-30T17:36:12.090Z,13.07
2022-09-30T17:38:39.794Z,12.87
2022-09-30T17:41:26.086Z,12.91
2022-09-30T17:43:52.760Z,12.06
2022-09-30T17:46:23.142Z,12.84
2022-09-30T17:48:51.145Z,12.73
2022-09-30T17:51:18.097Z,12.57
2022-09-30T17:53:45.463Z,12.57
2022-09-30T17:56:19.296Z,12.65
2022-09-30T17:58:47.773Z,12.65
2022-09-30T18:01:20.462Z,12.61
2022-09-30T18:03:47.648Z,12.13
2022-09-30T18:06:14.554Z,12.39
2022-09-30T18:08:41.618Z,12.47
2022-09-30T18:11:08.468Z,12.20
2022-09-30T18:13:35.211Z,11.92
2022-09-30T18:16:06.910Z,11.71
2022-09-30T18:18:34.512Z,11.72
2022-09-30T18:21:01.141Z,11.06
2022-09-30T18:23:27.742Z,11.55
2022-09-30T18:25:54.954Z,11.42
2022-09-30T18:28:21.984Z,11.33
2022-09-30T18:30:48.799Z,11.35
2022-09-30T18:33:17.298Z,11.25
2022-09-30T18:35:44.598Z,11.40
2022-09-30T18:38:12.810Z,11.32
2022-09-30T18:40:43.354Z,11.18
2022-09-30T18:43:13.872Z,11.28
2022-09-30T18:45:40.706Z,11.26
2022-09-30T18:48:08.355Z,11.06
2022-09-30T18:50:35.261Z,11.11
2022-09-30T18:53:09.554Z,10.85
2022-09-30T18:55:38.244Z,11.18
2022-09-30T18:58:05.528Z,10.98
2022-09-30T19:00:32.572Z,10.78
2022-09-30T19:02:59.440Z,10.87
2022-09-30T19:05:26.306Z,10.74
2022-09-30T19:07:53.978Z,10.74
2022-09-30T19:10:22.094Z,10.87
2022-09-30T19:12:49.769Z,10.57
2022-09-30T19:15:16.599Z,10.68
2022-09-30T19:17:44.370Z,10.78
2022-09-30T19:20:13.987Z,10.59
2022-09-30T19:22:40.650Z,10.51
2022-09-30T19:25:12.396Z,10.34
2022-09-30T19:27:41.237Z,10.28
2022-09-30T19:30:10.560Z,10.16
2022-09-30T19:32:37.943Z,10.23
2022-09-30T19:35:10.220Z,10.15
2022-09-30T19:37:37.841Z,9.91
2022-09-30T19:40:19.745Z,9.60
2022-09-30T19:42:49.004Z,9.78
2022-09-30T19:45:16.468Z,9.92
2022-09-30T19:47:43.431Z,9.77
2022-09-30T19:50:10.187Z,9.85
2022-09-30T19:52:44.769Z,9.65
2022-09-30T19:55:16.848Z,9.85
2022-09-30T19:57:43.939Z,9.04
2022-09-30T20:00:12.898Z,9.82
2022-09-30T20:02:39.783Z,9.73
2022-09-30T20:05:07.484Z,9.72
2022-09-30T20:07:35.205Z,9.43
2022-09-30T20:10:02.304Z,9.45
2022-09-30T20:12:29.231Z,9.43
2022-09-30T20:15:14.499Z,9.53
2022-09-30T20:17:41.269Z,9.56
2022-09-30T20:20:26.978Z,9.41
2022-09-30T20:22:53.683Z,9.51
2022-09-30T20:25:20.464Z,9.56
2022-09-30T20:27:51.315Z,9.57
2022-09-30T20:30:19.989Z,9.40
2022-09-30T20:32:46.691Z,9.36
2022-09-30T20:35:13.886Z,9.52
2022-09-30T20:37:42.367Z,9.50
2022-09-30T20:40:09.682Z,9.23
2022-09-30T20:42:38.252Z,9.28
2022-09-30T20:45:10.030Z,9.07
2022-09-30T20:47:38.108Z,9.09
2022-09-30T20:50:05.854Z,9.12
2022-09-30T20:52:32.634Z,9.11
2022-09-30T20:55:00.331Z,8.98
2022-09-30T20:57:31.134Z,9.06
2022-09-30T20:59:59.920Z,9.06
2022-09-30T21:02:28.113Z,9.07
2022-09-30T21:04:57.488Z,9.04
2022-09-30T21:07:25.256Z,9.00
2022-09-30T21:09:52.173Z,8.63
2022-09-30T21:12:18.929Z,8.60
2022-09-30T21:14:45.775Z,8.56
2022-09-30T21:17:12.456Z,8.98
2022-09-30T21:19:39.913Z,8.93
2022-09-30T21:22:06.703Z,8.77
2022-09-30T21:24:33.360Z,8.45
2022-09-30T21:27:01.514Z,8.48
2022-09-30T21:29:30.419Z,8.46
2022-09-30T21:31:57.322Z,8.54
2022-09-30T21:34:24.501Z,8.29
2022-09-30T21:36:51.403Z,8.20
2022-09-30T21:39:18.089Z,8.26
2022-09-30T21:41:45.953Z,8.32
2022-09-30T21:44:13.854Z,8.34
2022-09-30T21:46:44.707Z,8.40
2022-09-30T21:49:23.760Z,8.42
2022-09-30T21:51:53.307Z,8.32
2022-09-30T21:54:20.323Z,8.42
2022-09-30T21:56:48.385Z,8.40
2022-09-30T21:59:15.668Z,8.41
2022-09-30T22:01:42.390Z,8.39
2022-09-30T22:04:09.500Z,8.40
2022-09-30T22:06:36.180Z,7.78
2022-09-30T22:09:02.807Z,7.98
2022-09-30T22:11:30.785Z,8.24
2022-09-30T22:13:59.448Z,8.19
2022-09-30T22:16:29.655Z,8.07
2022-09-30T22:19:00.060Z,8.02
2022-09-30T22:21:33.137Z,8.00
2022-09-30T22:24:01.694Z,7.97
2022-09-30T22:26:29.657Z,7.76
2022-09-30T22:29:02.051Z,7.89
2022-09-30T22:31:31.566Z,7.60
2022-09-30T22:34:19.931Z,7.96
2022-09-30T22:37:05.285Z,7.83
2022-09-30T22:39:32.153Z,7.77
2022-09-30T22:41:59.044Z,7.87
2022-09-30T22:44:28.405Z,7.82
2022-09-30T22:46:56.136Z,7.76
2022-09-30T22:49:24.286Z,7.76
2022-09-30T22:51:55.703Z,7.62
2022-09-30T22:54:24.274Z,7.58
2022-09-30T22:56:51.223Z,7.36
2022-09-30T22:59:18.925Z,7.50
2022-09-30T23:01:46.056Z,7.55
2022-09-30T23:04:17.157Z,7.52
2022-09-30T23:06:45.726Z,7.58
2022-09-30T23:09:12.344Z,7.51
2022-09-30T23:11:39.270Z,7.37
2022-09-30T23:14:05.846Z,7.41
2022-09-30T23:16:32.526Z,7.52
2022-09-30T23:18:59.504Z,7.50
2022-09-30T23:21:26.218Z,7.46
2022-09-30T23:23:53.367Z,7.47
2022-09-30T23:26:25.047Z,7.55
2022-09-30T23:28:56.454Z,7.61
2022-09-30T23:31:23.143Z,7.38
2022-09-30T23:33:54.752Z,7.42
2022-09-30T23:36:29.515Z,7.54
2022-09-30T23:39:04.723Z,7.60
2022-09-30T23:41:32.731Z,7.60
2022-09-30T23:44:01.091Z,7.57
2022-09-30T23:46:27.736Z,7.53
2022-09-30T23:48:54.403Z,6.90
2022-09-30T23:51:21.055Z,7.35
2022-09-30T23:53:47.767Z,7.42
2022-09-30T23:56:16.744Z,7.40
2022-09-30T23:58:44.459Z,7.40
